Time;durP1;ratioP1;P1;durP2;ratioP2;P2;SDS_P1;SDS_P2;PMS_P1;PMS_P2;Temp;Humidity;BMP_temperature;BMP_pressure;BME280_temperature;BME280_humidity;BME280_pressure;Samples;Min_cycle;Max_cycle;Signal;HPM_P1;HPM_P2
2020/12/08 00:01:48;;;;;;;19.38;12.50;;;;;;;4.03;95.59;99916.50;4957192;28;20086;-50
2020/12/08 00:04:14;;;;;;;17.52;11.52;;;;;;;4.06;95.58;99926.75;4955687;28;20046;-49
2020/12/08 00:06:41;;;;;;;18.17;12.00;;;;;;;4.06;95.23;99925.88;4954208;28;20051;-48
2020/12/08 00:09:07;;;;;;;15.60;11.57;;;;;;;3.91;96.58;99931.22;4955293;28;20047;-45
2020/12/08 00:11:34;;;;;;;17.77;12.30;;;;;;;4.25;95.73;99930.00;4957369;28;20683;-48
2020/12/08 00:14:00;;;;;;;19.90;13.25;;;;;;;4.06;95.76;99921.69;4957358;28;20146;-48
2020/12/08 00:16:27;;;;;;;18.80;12.55;;;;;;;4.00;96.40;99923.97;4954117;28;20411;-48
2020/12/08 00:18:53;;;;;;;19.75;13.48;;;;;;;4.02;96.24;99924.03;4953704;28;20055;-50
2020/12/08 00:21:20;;;;;;;24.88;16.10;;;;;;;3.81;98.26;99926.59;4956348;28;20419;-48
2020/12/08 00:23:46;;;;;;;23.73;15.88;;;;;;;3.81;99.37;99924.91;4957365;28;20522;-46
2020/12/08 00:26:13;;;;;;;26.60;17.70;;;;;;;3.81;99.57;99919.84;4955800;28;20058;-46
2020/12/08 00:28:40;;;;;;;27.40;15.82;;;;;;;3.82;99.72;99919.03;4954263;28;20412;-47
2020/12/08 00:31:07;;;;;;;24.20;16.77;;;;;;;3.81;100.00;99924.91;4954641;28;20050;-48
2020/12/08 00:33:34;;;;;;;26.63;17.85;;;;;;;3.93;99.46;99916.97;4957119;28;20687;-52
2020/12/08 00:36:02;;;;;;;24.20;15.38;;;;;;;4.02;99.64;99918.97;4957185;28;20054;-50
2020/12/08 00:38:29;;;;;;;25.27;17.05;;;;;;;4.01;99.54;99910.50;4953670;28;20420;-48
2020/12/08 00:40:56;;;;;;;25.45;16.92;;;;;;;3.98;99.59;99907.00;4953643;28;20049;-48
2020/12/08 00:43:22;;;;;;;29.02;17.75;;;;;;;3.83;99.94;99908.09;4954718;28;20488;-48
2020/12/08 00:45:49;;;;;;;27.83;18.30;;;;;;;3.82;100.00;99908.91;4956956;28;20050;-47
2020/12/08 00:48:16;;;;;;;28.50;18.63;;;;;;;3.80;100.00;99909.69;4954997;28;20141;-48
2020/12/08 00:50:42;;;;;;;30.27;18.70;;;;;;;3.83;100.00;99904.72;4953825;28;20058;-51
2020/12/08 00:53:09;;;;;;;30.58;19.27;;;;;;;3.77;100.00;99901.94;4955036;28;20043;-47
2020/12/08 00:55:35;;;;;;;34.80;21.73;;;;;;;3.68;100.00;99899.03;4957037;28;20043;-49
2020/12/08 00:58:02;;;;;;;33.83;20.17;;;;;;;3.74;100.00;99889.16;4956832;28;20046;-48
2020/12/08 01:00:28;;;;;;;34.25;20.55;;;;;;;3.67;100.00;99877.94;4953726;28;20051;-49
2020/12/08 01:02:55;;;;;;;33.28;21.17;;;;;;;3.64;100.00;99890.44;4953422;28;20051;-44
2020/12/08 01:05:22;;;;;;;35.17;21.02;;;;;;;3.65;100.00;99882.09;4956123;28;20047;-47
2020/12/08 01:07:49;;;;;;;39.72;22.20;;;;;;;3.88;100.00;99882.97;4956790;28;20050;-48
2020/12/08 01:10:16;;;;;;;35.85;21.77;;;;;;;3.71;100.00;99889.91;4957112;28;20051;-51
2020/12/08 01:12:42;;;;;;;32.08;20.75;;;;;;;3.54;100.00;99891.75;4957024;28;20504;-45
2020/12/08 01:15:09;;;;;;;33.28;21.85;;;;;;;3.57;100.00;99901.16;4958143;28;20685;-47
2020/12/08 01:17:35;;;;;;;41.35;24.48;;;;;;;3.48;100.00;99899.09;4955700;28;20044;-47
2020/12/08 01:20:03;;;;;;;37.83;21.83;;;;;;;3.38;100.00;99898.69;4956929;28;20499;-50
2020/12/08 01:22:30;;;;;;;37.75;24.20;;;;;;;3.41;100.00;99892.03;4957055;28;20057;-44
2020/12/08 01:24:57;;;;;;;34.78;21.70;;;;;;;3.29;100.00;99897.47;4956769;28;20047;-46
2020/12/08 01:27:24;;;;;;;42.10;23.98;;;;;;;3.32;100.00;99907.72;4959639;28;20153;-51
2020/12/08 01:29:51;;;;;;;37.63;24.95;;;;;;;3.34;100.00;99906.94;4960290;28;20502;-48
2020/12/08 01:32:17;;;;;;;41.03;24.08;;;;;;;3.35;100.00;99899.41;4958004;28;20055;-47
2020/12/08 01:34:43;;;;;;;39.95;24.15;;;;;;;3.32;100.00;99901.78;4956489;28;20107;-50
2020/12/08 01:37:10;;;;;;;39.30;23.50;;;;;;;3.43;100.00;99904.78;4958077;28;20078;-46
2020/12/08 01:39:36;;;;;;;43.63;26.50;;;;;;;3.41;100.00;99904.69;4959844;28;20082;-52
2020/12/08 01:42:03;;;;;;;41.03;23.40;;;;;;;3.45;100.00;99900.63;4958299;28;20074;-49
2020/12/08 01:44:30;;;;;;;42.88;25.63;;;;;;;3.49;100.00;99899.97;4956518;28;20528;-51
2020/12/08 01:46:56;;;;;;;48.83;27.35;;;;;;;3.54;100.00;99896.81;4956315;28;20062;-50
2020/12/08 01:49:24;;;;;;;39.47;24.60;;;;;;;3.62;100.00;99892.06;4954190;28;20083;-49
2020/12/08 01:51:50;;;;;;;39.20;25.00;;;;;;;3.81;100.00;99886.94;4956246;28;20055;-50
2020/12/08 01:54:17;;;;;;;43.15;24.13;;;;;;;3.62;100.00;99884.47;4957750;28;20063;-45
2020/12/08 01:56:44;;;;;;;41.78;25.27;;;;;;;3.61;100.00;99882.75;4959407;28;20050;-49
2020/12/08 01:59:11;;;;;;;40.33;23.73;;;;;;;3.78;100.00;99885.94;4958619;28;20448;-46
2020/12/08 02:01:37;;;;;;;41.95;25.02;;;;;;;3.73;100.00;99883.22;4956557;28;20074;-52
2020/12/08 02:04:05;;;;;;;41.38;25.45;;;;;;;3.75;100.00;99884.19;4956360;28;20114;-47
2020/12/08 02:06:32;;;;;;;42.10;25.52;;;;;;;4.03;100.00;99881.06;4959278;28;20055;-46
2020/12/08 02:08:58;;;;;;;37.85;23.48;;;;;;;4.07;100.00;99879.50;4958984;28;20047;-47
2020/12/08 02:11:25;;;;;;;41.17;24.50;;;;;;;4.06;100.00;99882.81;4955762;28;20062;-47
2020/12/08 02:13:51;;;;;;;41.33;25.25;;;;;;;4.00;100.00;99888.53;4955705;28;20047;-50
2020/12/08 02:16:20;;;;;;;46.00;26.02;;;;;;;3.98;100.00;99890.16;4957891;28;20047;-46
2020/12/08 02:18:47;;;;;;;46.53;25.73;;;;;;;3.98;100.00;99889.28;4958984;28;20050;-46
2020/12/08 02:21:15;;;;;;;41.17;25.77;;;;;;;4.19;100.00;99889.22;4957316;28;20055;-49
2020/12/08 02:23:51;;;;;;;48.50;29.17;;;;;;;4.30;100.00;99888.84;4955672;28;20054;-48
2020/12/08 02:26:17;;;;;;;49.35;28.23;;;;;;;4.09;100.00;99899.00;4958146;28;20114;-50
2020/12/08 02:28:43;;;;;;;46.28;27.63;;;;;;;4.06;100.00;99885.34;4959461;28;20466;-48
2020/12/08 02:31:10;;;;;;;45.22;27.90;;;;;;;4.09;100.00;99885.47;4958788;28;20105;-46
2020/12/08 02:33:36;;;;;;;49.97;28.88;;;;;;;3.99;100.00;99883.41;4956267;28;20106;-47
2020/12/08 02:36:04;;;;;;;47.65;28.00;;;;;;;4.02;100.00;99878.44;4964743;28;20054;-46
2020/12/08 02:38:30;;;;;;;52.05;29.83;;;;;;;4.02;100.00;99880.97;4959232;28;20121;-49
2020/12/08 02:40:57;;;;;;;49.92;29.80;;;;;;;4.03;100.00;99877.66;4959838;28;20047;-47
2020/12/08 02:43:24;;;;;;;48.92;29.88;;;;;;;4.00;100.00;99885.13;4958217;28;20557;-51
2020/12/08 02:45:51;;;;;;;53.67;30.50;;;;;;;4.02;100.00;99873.38;4958582;28;20149;-53
2020/12/08 02:48:17;;;;;;;49.85;29.77;;;;;;;4.08;100.00;99874.50;4956302;28;20058;-50
2020/12/08 02:50:57;;;;;;;50.08;29.17;;;;;;;4.06;100.00;99880.28;4955200;28;20055;-49
2020/12/08 02:53:24;;;;;;;51.85;30.02;;;;;;;4.00;100.00;99882.59;4957672;28;20065;-50
2020/12/08 02:55:51;;;;;;;54.58;31.50;;;;;;;4.39;100.00;99877.28;4958296;28;20631;-53
2020/12/08 02:58:17;;;;;;;48.78;29.30;;;;;;;4.51;100.00;99882.84;4956174;28;20062;-49
2020/12/08 03:00:43;;;;;;;51.03;30.15;;;;;;;4.33;100.00;99883.00;4955068;28;20557;-48
2020/12/08 03:03:10;;;;;;;49.58;29.52;;;;;;;4.53;100.00;99882.09;4956210;28;20063;-49
2020/12/08 03:05:36;;;;;;;48.20;29.02;;;;;;;4.74;99.29;99881.13;4958088;28;20043;-50
2020/12/08 03:08:04;;;;;;;45.00;27.23;;;;;;;4.63;99.82;99883.28;4957862;28;20053;-51
2020/12/08 03:10:30;;;;;;;48.20;29.25;;;;;;;4.45;99.99;99880.09;4954654;28;20054;-52
2020/12/08 03:12:57;;;;;;;47.28;27.83;;;;;;;4.47;100.00;99893.66;4954745;28;20071;-46
2020/12/08 03:15:25;;;;;;;54.65;30.52;;;;;;;4.44;100.00;99896.09;4957620;28;20043;-53
2020/12/08 03:17:51;;;;;;;46.42;27.60;;;;;;;4.54;100.00;99893.94;4957970;28;20051;-48
2020/12/08 03:20:17;;;;;;;46.05;27.30;;;;;;;4.82;98.47;99885.66;4955863;28;20396;-50
2020/12/08 03:22:44;;;;;;;48.47;28.63;;;;;;;4.75;99.01;99896.38;4954547;28;20051;-48
2020/12/08 03:25:10;;;;;;;46.92;27.88;;;;;;;4.73;98.24;99898.03;4955544;28;20558;-53
2020/12/08 03:27:36;;;;;;;47.72;27.90;;;;;;;4.53;98.88;99902.38;4958092;28;20121;-51
2020/12/08 03:30:05;;;;;;;54.58;29.65;;;;;;;4.58;99.34;99910.16;4957639;28;20049;-52
2020/12/08 03:32:32;;;;;;;46.10;27.83;;;;;;;4.69;98.89;99908.84;4954025;28;20059;-51
2020/12/08 03:34:58;;;;;;;48.90;27.85;;;;;;;4.85;99.02;99907.72;4954303;28;20051;-46
2020/12/08 03:37:25;;;;;;;48.20;29.17;;;;;;;4.69;97.55;99903.78;4957212;28;20056;-50
2020/12/08 03:39:51;;;;;;;54.00;30.20;;;;;;;4.50;99.03;99907.31;4957657;28;20073;-47
2020/12/08 03:42:18;;;;;;;55.95;32.40;;;;;;;4.45;99.71;99911.34;4955680;28;20566;-52
2020/12/08 03:44:44;;;;;;;58.40;31.40;;;;;;;4.63;99.54;99908.66;4946585;28;20508;-51
2020/12/08 03:47:10;;;;;;;55.55;31.83;;;;;;;4.50;99.24;99912.38;4954555;28;20051;-49
2020/12/08 03:49:37;;;;;;;53.92;32.00;;;;;;;4.72;99.32;99906.44;4954149;28;20047;-45
2020/12/08 03:52:04;;;;;;;53.97;32.60;;;;;;;4.65;98.48;99901.09;4954043;28;20058;-45
2020/12/08 03:54:31;;;;;;;54.42;31.88;;;;;;;4.58;99.11;99902.53;4957391;28;20110;-48
2020/12/08 03:56:58;;;;;;;57.40;31.83;;;;;;;4.63;99.40;99903.56;4957466;28;20533;-45
2020/12/08 03:59:24;;;;;;;52.58;31.10;;;;;;;4.75;98.04;99908.22;4952037;28;20047;-47
2020/12/08 04:01:51;;;;;;;56.55;31.58;;;;;;;4.52;99.22;99900.63;4953470;28;20090;-47
2020/12/08 04:04:21;;;;;;;55.53;31.85;;;;;;;4.84;98.72;99894.19;4955796;28;20066;-45
2020/12/08 04:06:47;;;;;;;54.78;30.70;;;;;;;4.85;98.03;99889.97;4957080;28;20077;-48
2020/12/08 04:09:14;;;;;;;56.85;30.95;;;;;;;4.75;97.30;99893.84;4955800;28;20114;-48
2020/12/08 04:11:41;;;;;;;57.90;32.60;;;;;;;4.61;97.75;99895.03;4946967;28;20043;-48
2020/12/08 04:14:07;;;;;;;54.10;31.27;;;;;;;4.49;99.10;99897.13;4954263;28;20455;-48
2020/12/08 04:16:36;;;;;;;54.33;31.33;;;;;;;4.77;97.86;99901.53;4953944;28;20055;-50
2020/12/08 04:19:05;;;;;;;55.28;30.50;;;;;;;4.70;97.46;99902.09;4954006;28;20118;-45
2020/12/08 04:21:33;;;;;;;57.55;31.40;;;;;;;4.89;97.44;99901.97;4957254;28;20915;-46
2020/12/08 04:24:00;;;;;;;53.00;30.30;;;;;;;4.82;96.45;99893.28;4956935;28;20046;-45
2020/12/08 04:26:31;;;;;;;58.20;32.42;;;;;;;4.69;97.20;99891.09;4954079;28;20056;-47
2020/12/08 04:28:59;;;;;;;54.92;31.73;;;;;;;4.58;98.13;99892.41;4953731;28;20058;-50
2020/12/08 04:31:26;;;;;;;55.50;32.47;;;;;;;4.66;98.10;99890.13;4956982;28;20448;-46
2020/12/08 04:33:53;;;;;;;54.38;32.70;;;;;;;4.70;96.59;99892.81;4958000;28;20101;-45
2020/12/08 04:36:21;;;;;;;52.55;30.40;;;;;;;4.79;96.03;99888.09;4955724;28;20059;-49
2020/12/08 04:38:49;;;;;;;55.95;31.00;;;;;;;4.79;96.62;99887.22;4954434;28;20106;-47
2020/12/08 04:41:22;;;;;;;51.30;31.52;;;;;;;4.99;95.50;99895.53;4956196;28;20047;-47
2020/12/08 04:43:50;;;;;;;53.15;30.73;;;;;;;4.96;94.72;99895.44;4959344;28;20259;-45
2020/12/08 04:46:21;;;;;;;55.72;31.08;;;;;;;4.95;95.18;99893.72;4960032;28;20046;-45
2020/12/08 04:48:49;;;;;;;52.85;30.17;;;;;;;5.14;93.47;99892.69;4958085;28;20043;-48
2020/12/08 04:51:16;;;;;;;55.47;31.60;;;;;;;4.90;94.23;99900.28;4959794;28;20055;-46
2020/12/08 04:53:43;;;;;;;56.33;30.92;;;;;;;5.17;94.02;99911.41;4961454;28;20051;-46
2020/12/08 04:56:09;;;;;;;52.25;30.92;;;;;;;5.08;93.64;99908.53;4960662;28;20483;-46
2020/12/08 04:58:36;;;;;;;53.70;31.20;;;;;;;4.80;95.15;99909.25;4957839;28;20050;-47
2020/12/08 05:01:02;;;;;;;52.15;30.60;;;;;;;4.81;95.01;99903.38;4958160;28;20055;-45
2020/12/08 05:03:33;;;;;;;54.65;31.08;;;;;;;4.72;95.31;99901.38;4950180;28;20079;-50
2020/12/08 05:05:59;;;;;;;58.20;30.55;;;;;;;4.78;94.83;99904.13;4949847;28;20865;-45
2020/12/08 05:08:26;;;;;;;54.05;31.05;;;;;;;4.80;95.17;99911.78;4949880;28;20062;-47
2020/12/08 05:10:52;;;;;;;50.72;30.30;;;;;;;4.80;95.13;99916.84;4949651;28;20047;-48
2020/12/08 05:13:28;;;;;;;55.35;30.70;;;;;;;4.66;95.02;99913.81;4949998;28;20051;-46
2020/12/08 05:16:05;;;;;;;56.10;30.58;;;;;;;4.81;95.93;99904.25;4949704;28;20059;-46
2020/12/08 05:18:33;;;;;;;52.03;29.05;;;;;;;5.04;94.35;99907.59;4949629;28;20094;-46
2020/12/08 05:21:13;;;;;;;52.65;29.42;;;;;;;4.85;95.08;99906.09;4949652;28;20055;-48
2020/12/08 05:23:44;;;;;;;51.35;29.45;;;;;;;5.09;93.77;99916.22;4949737;28;20463;-48
2020/12/08 05:26:15;;;;;;;49.47;29.77;;;;;;;4.89;93.91;99929.84;4949715;28;20500;-45
2020/12/08 05:28:43;;;;;;;53.67;30.33;;;;;;;4.66;94.87;99929.03;4953601;28;20105;-47
2020/12/08 05:31:10;;;;;;;57.40;30.98;;;;;;;5.05;93.24;99921.13;4958385;28;20050;-48
2020/12/08 05:33:44;;;;;;;56.90;30.15;;;;;;;4.75;94.48;99926.81;4960649;28;20334;-47
2020/12/08 05:36:12;;;;;;;47.53;29.63;;;;;;;4.87;95.18;99934.03;4959913;28;20055;-50
2020/12/08 05:38:39;;;;;;;53.42;31.25;;;;;;;4.85;93.77;99933.97;4957467;28;20094;-50
2020/12/08 05:41:07;;;;;;;52.30;30.92;;;;;;;4.73;94.08;99933.53;4957783;28;20051;-48
2020/12/08 05:43:42;;;;;;;51.75;29.88;;;;;;;4.59;94.72;99932.16;4960564;28;20043;-46
2020/12/08 05:46:10;;;;;;;53.28;30.33;;;;;;;4.95;94.41;99935.19;4959931;28;20046;-47
2020/12/08 05:48:37;;;;;;;50.20;30.58;;;;;;;4.71;94.05;99935.13;4957167;28;20102;-45
2020/12/08 05:51:06;;;;;;;52.67;30.08;;;;;;;4.96;94.05;99944.50;4963393;28;20046;-45
2020/12/08 05:53:33;;;;;;;51.35;29.33;;;;;;;5.02;93.14;99944.72;4951161;28;20058;-51
2020/12/08 05:56:07;;;;;;;52.70;29.77;;;;;;;5.04;93.22;99943.13;4952629;28;20051;-45
2020/12/08 05:58:37;;;;;;;54.75;30.02;;;;;;;4.95;93.06;99944.47;4954851;28;20101;-54
2020/12/08 06:01:06;;;;;;;54.97;29.50;;;;;;;4.76;93.29;99947.97;4951308;28;20397;-49
2020/12/08 06:03:35;;;;;;;55.95;30.88;;;;;;;4.63;94.51;99943.28;4962897;28;20063;-48
2020/12/08 06:06:10;;;;;;;51.70;30.13;;;;;;;4.69;94.27;99946.91;4951117;28;20109;-47
2020/12/08 06:09:03;;;;;;;54.78;30.92;;;;;;;4.52;94.69;99942.84;4951449;28;20423;-53
2020/12/08 06:11:30;;;;;;;56.47;31.30;;;;;;;4.66;94.97;99944.22;4949397;28;20047;-47
2020/12/08 06:13:59;;;;;;;53.55;30.48;;;;;;;4.66;94.74;99948.44;5053504;23;20057;-50
2020/12/08 06:16:33;;;;;;;55.47;30.85;;;;;;;4.59;94.40;99948.22;4969192;28;20098;-50
2020/12/08 06:19:00;;;;;;;55.30;30.60;;;;;;;4.55;94.83;99951.44;4968178;28;20049;-47
2020/12/08 06:21:28;;;;;;;56.58;32.03;;;;;;;4.97;92.21;99948.75;4971119;28;20149;-52
2020/12/08 06:23:57;;;;;;;53.42;29.27;;;;;;;4.61;93.57;99958.41;4971299;28;20066;-50
2020/12/08 06:26:30;;;;;;;54.38;32.13;;;;;;;4.63;93.25;99961.88;4971018;28;20130;-55
2020/12/08 06:28:57;;;;;;;53.30;30.98;;;;;;;4.61;93.86;99953.34;4960409;28;20133;-52
2020/12/08 06:31:24;;;;;;;54.30;31.23;;;;;;;4.53;94.62;99958.16;4971227;28;20121;-47
2020/12/08 06:33:55;;;;;;;52.45;30.17;;;;;;;4.83;93.11;99965.16;4975276;28;20046;-49
2020/12/08 06:36:25;;;;;;;54.75;31.42;;;;;;;4.48;94.12;99964.69;4974591;28;20061;-49
2020/12/08 06:39:02;;;;;;;51.92;30.08;;;;;;;4.37;94.45;99965.09;4991978;28;20050;-54
2020/12/08 06:41:31;;;;;;;52.50;31.77;;;;;;;4.36;94.03;99971.84;4991886;28;20043;-51
2020/12/08 06:43:59;;;;;;;59.15;32.25;;;;;;;4.49;93.56;99974.03;4988559;28;20546;-49
2020/12/08 06:46:31;;;;;;;57.22;33.05;;;;;;;4.45;93.78;99976.41;4992116;28;20058;-49
2020/12/08 06:49:00;;;;;;;55.42;32.75;;;;;;;4.36;94.87;99989.59;4988723;28;20050;-46
2020/12/08 06:51:27;;;;;;;58.78;32.00;;;;;;;4.88;93.00;99988.16;4986731;28;20057;-48
2020/12/08 06:53:54;;;;;;;49.80;30.08;;;;;;;4.66;91.87;99983.94;4968897;28;20529;-47
2020/12/08 06:56:32;;;;;;;56.63;32.80;;;;;;;4.43;94.43;99988.13;4991938;28;20183;-44
2020/12/08 06:58:59;;;;;;;53.13;31.48;;;;;;;4.26;94.14;99985.81;4992245;28;20046;-44
2020/12/08 07:01:26;;;;;;;58.70;33.38;;;;;;;4.31;93.51;99989.41;4992821;28;20050;-47
2020/12/08 07:03:54;;;;;;;59.00;32.70;;;;;;;4.36;94.39;99994.66;4993523;28;20048;-45
2020/12/08 07:06:25;;;;;;;58.58;32.72;;;;;;;4.24;94.38;99995.00;4980711;28;20049;-45
2020/12/08 07:08:55;;;;;;;57.13;31.25;;;;;;;4.37;93.29;99992.97;4979625;28;20050;-44
2020/12/08 07:11:24;;;;;;;60.05;32.75;;;;;;;4.13;94.68;99998.81;4984353;28;20050;-44
2020/12/08 07:14:02;;;;;;;58.28;33.20;;;;;;;4.20;94.49;99993.16;4968461;28;20047;-47
2020/12/08 07:16:30;;;;;;;61.83;32.80;;;;;;;4.07;94.80;99998.56;4977239;28;20092;-49
2020/12/08 07:18:57;;;;;;;64.65;33.42;;;;;;;3.95;95.41;100005.66;4984131;28;20093;-49
2020/12/08 07:21:25;;;;;;;57.30;31.85;;;;;;;4.11;94.58;100005.47;4983808;28;20075;-49
2020/12/08 07:24:09;;;;;;;60.08;32.33;;;;;;;4.10;94.67;100011.34;4983409;28;20046;-48
2020/12/08 07:26:38;;;;;;;58.17;32.85;;;;;;;4.19;94.15;100004.09;4973914;28;20490;-48
2020/12/08 07:29:06;;;;;;;60.88;32.85;;;;;;;3.89;95.39;100010.47;4975390;28;20047;-50
2020/12/08 07:31:33;;;;;;;59.80;34.67;;;;;;;3.89;95.16;99995.28;4974772;28;20506;-52
2020/12/08 07:34:00;;;;;;;56.85;31.50;;;;;;;3.93;94.98;100002.19;4968776;28;20150;-46
2020/12/08 07:36:30;;;;;;;58.28;32.38;;;;;;;3.96;95.35;99999.78;4968628;28;20073;-49
2020/12/08 07:39:00;;;;;;;63.78;34.58;;;;;;;3.75;95.24;100004.84;4968195;28;20486;-49
2020/12/08 07:41:30;;;;;;;57.55;33.10;;;;;;;3.67;95.79;100017.16;4982620;28;20514;-47
2020/12/08 07:43:59;;;;;;;56.80;32.90;;;;;;;3.68;96.11;100016.38;4984489;28;20046;-47
2020/12/08 07:46:28;;;;;;;57.35;33.10;;;;;;;3.71;95.54;100019.03;4983885;28;20105;-46
2020/12/08 07:49:10;;;;;;;61.75;33.90;;;;;;;3.52;96.69;100022.44;4982548;28;20767;-48
2020/12/08 07:51:38;;;;;;;64.30;34.60;;;;;;;3.46;97.22;100029.75;4982054;28;20425;-49
2020/12/08 07:54:06;;;;;;;66.35;35.38;;;;;;;3.48;96.74;100028.19;4968786;28;20090;-44
2020/12/08 07:56:35;;;;;;;65.80;35.17;;;;;;;3.47;96.78;100033.19;4967989;28;20097;-46
2020/12/08 07:59:03;;;;;;;59.15;34.22;;;;;;;3.48;97.21;100030.72;4968213;28;20047;-44
2020/12/08 08:01:37;;;;;;;62.53;35.67;;;;;;;3.42;96.81;100034.63;4967905;28;20043;-45
2020/12/08 08:04:22;;;;;;;57.55;33.65;;;;;;;3.56;96.24;100036.97;4968598;28;20050;-49
2020/12/08 08:06:49;;;;;;;64.82;33.92;;;;;;;3.50;96.68;100038.34;4967528;28;20047;-48
2020/12/08 08:09:15;;;;;;;56.83;34.25;;;;;;;3.56;96.29;100036.97;4967669;28;20054;-47
2020/12/08 08:11:41;;;;;;;58.58;32.25;;;;;;;3.55;96.59;100036.88;4968199;28;20517;-45
2020/12/08 08:14:08;;;;;;;61.42;34.83;;;;;;;3.50;95.89;100039.22;4949089;28;20122;-46
2020/12/08 08:16:34;;;;;;;62.65;32.83;;;;;;;3.73;95.79;100037.66;4948554;28;20051;-49
2020/12/08 08:19:01;;;;;;;56.03;33.42;;;;;;;3.64;95.77;100044.00;4950482;28;20059;-46
2020/12/08 08:21:28;;;;;;;62.17;34.80;;;;;;;3.49;95.69;100049.28;4959018;28;20059;-45
2020/12/08 08:23:58;;;;;;;55.55;32.88;;;;;;;3.70;94.44;100049.38;4950826;28;20054;-47
2020/12/08 08:26:24;;;;;;;55.25;32.65;;;;;;;3.69;94.82;100047.59;4967237;28;20234;-44
2020/12/08 08:28:51;;;;;;;64.07;32.35;;;;;;;3.58;95.31;100050.53;4967530;28;20054;-46
2020/12/08 08:31:18;;;;;;;64.65;32.63;;;;;;;3.71;94.62;100048.56;4966801;28;20121;-45
2020/12/08 08:33:44;;;;;;;56.35;31.42;;;;;;;3.70;95.03;100049.38;4967620;28;20046;-50
2020/12/08 08:36:11;;;;;;;54.55;31.52;;;;;;;3.70;94.54;100045.16;4967021;28;20110;-47
2020/12/08 08:38:41;;;;;;;57.85;33.92;;;;;;;3.73;94.30;100054.53;4987109;28;20046;-47
2020/12/08 08:41:09;;;;;;;58.95;33.00;;;;;;;3.95;93.02;100048.72;4986196;28;20057;-45
2020/12/08 08:43:36;;;;;;;58.33;32.83;;;;;;;3.91;93.24;100045.19;4984966;28;20064;-50
2020/12/08 08:46:03;;;;;;;55.45;32.05;;;;;;;4.02;91.90;100050.69;4986015;28;20061;-47
2020/12/08 08:48:30;;;;;;;57.58;32.75;;;;;;;4.31;91.23;100042.63;4970991;28;20105;-44
2020/12/08 08:50:56;;;;;;;55.03;31.90;;;;;;;4.26;91.59;100046.63;4971084;28;20503;-46
2020/12/08 08:53:22;;;;;;;51.47;29.13;;;;;;;4.30;90.76;100043.44;4968889;28;20342;-47
2020/12/08 08:55:49;;;;;;;55.70;31.35;;;;;;;4.99;88.77;100050.28;4968819;28;20607;-46
2020/12/08 08:58:15;;;;;;;52.13;28.73;;;;;;;5.13;86.31;100045.72;4968293;28;20059;-46
2020/12/08 09:00:42;;;;;;;48.55;29.10;;;;;;;5.14;86.70;100045.81;4969377;28;20069;-44
2020/12/08 09:03:09;;;;;;;47.13;26.77;;;;;;;6.03;83.42;100047.28;4968787;28;20042;-49
2020/12/08 09:05:37;;;;;;;48.55;26.70;;;;;;;6.40;80.59;100050.16;4972344;28;20062;-50
2020/12/08 09:08:05;;;;;;;43.45;26.48;;;;;;;6.97;77.99;100045.13;4996211;28;20147;-45
2020/12/08 09:10:32;;;;;;;41.63;26.08;;;;;;;7.05;76.76;100056.41;4995450;28;20050;-46
2020/12/08 09:12:59;;;;;;;43.22;26.23;;;;;;;7.34;75.00;100049.59;4998186;28;20132;-49
2020/12/08 09:15:25;;;;;;;43.53;26.63;;;;;;;7.77;72.97;100061.84;4978196;28;20076;-49
2020/12/08 09:17:52;;;;;;;42.20;26.25;;;;;;;7.72;73.49;100062.53;4970365;28;20066;-49
2020/12/08 09:20:18;;;;;;;47.60;28.55;;;;;;;7.61;73.32;100058.00;4988429;28;20054;-45
2020/12/08 09:22:45;;;;;;;50.20;30.20;;;;;;;7.92;71.30;100058.84;4976855;28;20054;-45
2020/12/08 09:25:12;;;;;;;49.30;28.27;;;;;;;7.40;74.21;100060.84;4971100;28;20054;-48
2020/12/08 09:27:39;;;;;;;56.92;32.05;;;;;;;6.55;76.95;100055.72;4970260;28;20101;-48
2020/12/08 09:30:05;;;;;;;54.05;30.35;;;;;;;6.83;76.88;100050.66;4969720;28;20043;-47
2020/12/08 09:32:32;;;;;;;46.50;28.98;;;;;;;6.73;76.62;100057.97;4969703;28;20047;-46
2020/12/08 09:34:59;;;;;;;49.63;30.27;;;;;;;5.79;80.07;100057.44;4969908;28;20047;-44
2020/12/08 09:37:26;;;;;;;51.15;30.48;;;;;;;6.08;79.84;100061.00;4968730;28;20055;-46
2020/12/08 09:39:53;;;;;;;52.10;30.73;;;;;;;6.41;78.55;100056.97;4970115;28;20058;-49
2020/12/08 09:42:20;;;;;;;47.92;28.98;;;;;;;6.37;78.60;100054.31;4969875;28;20045;-45
2020/12/08 09:44:47;;;;;;;49.22;28.58;;;;;;;6.00;80.58;100053.94;4969821;28;20131;-44
2020/12/08 09:47:16;;;;;;;50.92;31.27;;;;;;;5.82;81.73;100049.94;4970695;28;20121;-47
2020/12/08 09:49:44;;;;;;;51.15;29.33;;;;;;;6.12;80.07;100052.66;4970084;28;20458;-45
2020/12/08 09:52:10;;;;;;;49.80;30.25;;;;;;;5.57;82.05;100053.28;4961532;28;20574;-48
2020/12/08 09:54:37;;;;;;;52.25;31.15;;;;;;;5.35;83.72;100050.78;4950204;28;20058;-46
2020/12/08 09:57:03;;;;;;;52.72;29.73;;;;;;;5.48;83.16;100054.63;4950991;28;20047;-44
2020/12/08 09:59:29;;;;;;;50.53;28.83;;;;;;;5.78;81.06;100052.31;4949880;28;20047;-45
2020/12/08 10:01:57;;;;;;;45.00;27.33;;;;;;;6.00;80.53;100053.94;4950457;28;20047;-45
2020/12/08 10:04:23;;;;;;;47.50;28.65;;;;;;;6.15;80.36;100049.38;4965032;28;20062;-47
2020/12/08 10:06:50;;;;;;;49.15;27.90;;;;;;;6.28;79.92;100054.03;4965901;28;20055;-50
2020/12/08 10:09:17;;;;;;;45.92;28.23;;;;;;;6.21;79.79;100061.41;4964775;28;20431;-45
2020/12/08 10:11:45;;;;;;;44.88;27.55;;;;;;;6.11;80.22;100061.13;4965796;28;20447;-46
2020/12/08 10:14:12;;;;;;;46.92;26.95;;;;;;;6.33;80.03;100061.78;4965038;28;20470;-49
2020/12/08 10:16:42;;;;;;;44.58;27.27;;;;;;;5.99;80.99;100057.28;4965665;28;20058;-44
2020/12/08 10:19:12;;;;;;;44.63;27.25;;;;;;;6.04;81.07;100055.75;4966786;28;20574;-49
2020/12/08 10:21:40;;;;;;;49.50;27.75;;;;;;;6.18;79.75;100053.69;4965653;28;20123;-52
2020/12/08 10:24:07;;;;;;;44.88;27.63;;;;;;;6.87;77.57;100054.16;4964968;28;20085;-49
2020/12/08 10:26:34;;;;;;;38.25;24.35;;;;;;;7.51;74.29;100056.03;4965633;28;20187;-45
2020/12/08 10:29:00;;;;;;;43.83;25.02;;;;;;;7.18;75.58;100052.53;4964883;28;20550;-46
2020/12/08 10:31:27;;;;;;;43.20;26.33;;;;;;;6.36;77.99;100051.75;4964955;28;20054;-44
2020/12/08 10:33:53;;;;;;;43.63;27.50;;;;;;;6.02;78.79;100055.72;4965342;28;20070;-48
2020/12/08 10:36:20;;;;;;;45.42;27.30;;;;;;;6.34;78.31;100056.78;4964410;28;20054;-44
2020/12/08 10:38:47;;;;;;;46.70;27.13;;;;;;;6.35;79.06;100058.50;4965351;28;20047;-44
2020/12/08 10:41:13;;;;;;;42.33;24.75;;;;;;;6.49;77.39;100065.72;4964441;28;20060;-48
2020/12/08 10:43:40;;;;;;;45.20;26.30;;;;;;;5.97;79.42;100057.25;4969103;28;20043;-48
2020/12/08 10:46:06;;;;;;;43.42;26.58;;;;;;;6.09;79.38;100051.69;4964229;28;20577;-47
2020/12/08 10:48:33;;;;;;;46.33;25.83;;;;;;;6.33;78.35;100047.44;4964777;28;20694;-47
2020/12/08 10:50:59;;;;;;;44.33;26.50;;;;;;;5.98;79.66;100040.31;4964770;28;20062;-46
2020/12/08 10:53:26;;;;;;;43.78;26.65;;;;;;;6.01;79.92;100048.03;4963735;28;20054;-46
2020/12/08 10:55:52;;;;;;;41.60;25.67;;;;;;;5.84;80.66;100048.31;4964546;28;20525;-45
2020/12/08 10:58:19;;;;;;;46.15;26.88;;;;;;;5.87;80.54;100045.88;4963434;28;20147;-45
2020/12/08 11:00:45;;;;;;;45.60;26.02;;;;;;;6.51;78.30;100039.50;4964589;28;20055;-47
2020/12/08 11:03:12;;;;;;;42.22;25.27;;;;;;;6.32;78.31;100037.19;4963901;28;20153;-48
2020/12/08 11:05:39;;;;;;;42.38;25.70;;;;;;;6.06;78.62;100042.31;4964001;28;20502;-45
2020/12/08 11:08:06;;;;;;;43.85;26.35;;;;;;;6.00;79.38;100042.09;4963627;28;20210;-45
2020/12/08 11:10:33;;;;;;;43.58;26.83;;;;;;;6.24;78.09;100044.59;4964651;28;20155;-49
2020/12/08 11:12:59;;;;;;;41.80;25.17;;;;;;;6.08;78.59;100057.59;4964321;28;20106;-44
2020/12/08 11:15:26;;;;;;;41.78;25.90;;;;;;;6.05;78.63;100055.81;4963796;28;20065;-46
2020/12/08 11:17:52;;;;;;;40.92;23.98;;;;;;;7.00;75.68;100052.88;4964497;28;20056;-48
2020/12/08 11:20:20;;;;;;;39.65;25.83;;;;;;;6.96;75.63;100048.50;4961430;28;20055;-49
2020/12/08 11:22:46;;;;;;;41.38;24.33;;;;;;;7.76;72.94;100054.16;4961115;28;20047;-47
2020/12/08 11:25:13;;;;;;;36.50;24.17;;;;;;;7.75;71.73;100052.44;4949995;28;20067;-49